createdAt,value
2023-09-17T08:18:33.047Z,100906.20
2023-09-17T08:21:00.514Z,100905.67
2023-09-17T08:23:27.562Z,100901.38
2023-09-17T08:25:55.347Z,100901.10
2023-09-17T08:28:24.254Z,100902.84
2023-09-17T08:30:51.136Z,100904.20
2023-09-17T08:33:18.309Z,100900.25
2023-09-17T08:35:45.958Z,100898.62
2023-09-17T08:38:12.984Z,100890.94
2023-09-17T08:40:40.848Z,100890.30
2023-09-17T08:43:07.819Z,100889.95
2023-09-17T08:45:34.988Z,100890.37
2023-09-17T08:48:01.990Z,100886.99
2023-09-17T08:50:30.381Z,100886.81
2023-09-17T08:53:00.513Z,100889.15
2023-09-17T08:55:27.657Z,100891.61
2023-09-17T08:58:12.922Z,100890.55
2023-09-17T09:00:39.794Z,100885.09
2023-09-17T09:03:07.722Z,100886.67
2023-09-17T09:05:36.361Z,100888.88
2023-09-17T09:08:05.952Z,100882.75
2023-09-17T09:10:32.912Z,100883.08
2023-09-17T09:13:01.222Z,100882.14
2023-09-17T09:15:28.257Z,100881.42
2023-09-17T09:17:57.905Z,100878.23
2023-09-17T09:20:25.661Z,100876.44
2023-09-17T09:22:52.823Z,100872.42
2023-09-17T09:25:20.012Z,100873.67
2023-09-17T09:27:46.926Z,100874.70
2023-09-17T09:30:17.634Z,100873.63
2023-09-17T09:32:44.995Z,100877.24
2023-09-17T09:35:12.130Z,100874.15
2023-09-17T09:37:39.264Z,100870.66
2023-09-17T09:40:07.709Z,100870.52
2023-09-17T09:42:34.768Z,100874.52
2023-09-17T09:45:03.469Z,100872.42
2023-09-17T09:47:31.518Z,100871.24
2023-09-17T09:49:58.536Z,100865.71
2023-09-17T09:52:25.503Z,100867.05
2023-09-17T09:54:52.373Z,100865.61
2023-09-17T09:57:20.296Z,100865.75
2023-09-17T09:59:48.847Z,100869.17
2023-09-17T10:02:17.082Z,100867.18
2023-09-17T10:04:45.346Z,100866.27
2023-09-17T10:07:12.605Z,100865.80
2023-09-17T10:09:39.713Z,100862.00
2023-09-17T10:12:07.437Z,100861.41
2023-09-17T10:14:39.009Z,100863.41
2023-09-17T10:17:09.470Z,100863.77
2023-09-17T10:19:36.666Z,100861.19
2023-09-17T10:22:08.848Z,100857.52
2023-09-17T10:24:37.512Z,100854.05
2023-09-17T10:27:05.721Z,100854.80
2023-09-17T10:29:33.121Z,100853.55
2023-09-17T10:32:00.148Z,100851.20
2023-09-17T10:34:27.207Z,100845.54
2023-09-17T10:36:54.248Z,100849.48
2023-09-17T10:39:21.099Z,100848.68
2023-09-17T10:41:49.759Z,100845.48
2023-09-17T10:44:17.610Z,100841.10
2023-09-17T10:46:46.495Z,100845.13
2023-09-17T10:49:13.574Z,100839.25
2023-09-17T10:51:41.017Z,100835.70
2023-09-17T10:54:07.920Z,100839.23
2023-09-17T10:56:35.065Z,100835.29
2023-09-17T10:59:02.249Z,100827.17
2023-09-17T11:01:32.291Z,100828.62
2023-09-17T11:04:02.339Z,100826.69
2023-09-17T11:06:30.588Z,100825.77
2023-09-17T11:08:57.893Z,100822.55
2023-09-17T11:11:26.036Z,100820.61
2023-09-17T11:13:53.777Z,100819.57
2023-09-17T11:16:28.364Z,100819.16
2023-09-17T11:19:09.752Z,100819.42
2023-09-17T11:21:38.021Z,100815.92
2023-09-17T11:24:10.755Z,100817.58
2023-09-17T11:26:39.776Z,100812.70
2023-09-17T11:29:07.337Z,100813.99
2023-09-17T11:31:58.756Z,100811.83
2023-09-17T11:34:25.731Z,100808.05
2023-09-17T11:36:53.385Z,100807.98
2023-09-17T11:39:22.820Z,100808.89
2023-09-17T11:42:04.526Z,100805.81
2023-09-17T11:44:36.380Z,100807.61
2023-09-17T11:47:04.384Z,100804.36
2023-09-17T11:49:32.348Z,100800.38
2023-09-17T11:52:00.935Z,100801.17
2023-09-17T11:54:35.264Z,100797.93
2023-09-17T11:57:02.259Z,100795.51
2023-09-17T11:59:29.712Z,100795.11
2023-09-17T12:01:58.271Z,100791.89
2023-09-17T12:04:30.111Z,100793.12
2023-09-17T12:06:57.259Z,100788.00
2023-09-17T12:09:50.855Z,100783.35
2023-09-17T12:12:20.516Z,100781.46
2023-09-17T12:14:48.832Z,100787.40
2023-09-17T12:17:17.697Z,100783.48
2023-09-17T12:19:46.826Z,100778.81
2023-09-17T12:22:14.099Z,100780.84
2023-09-17T12:24:50.922Z,100775.77
2023-09-17T12:27:30.989Z,100776.04
2023-09-17T12:29:58.627Z,100774.63
2023-09-17T12:32:27.055Z,100769.91
2023-09-17T12:34:55.114Z,100766.48
2023-09-17T12:37:22.540Z,100768.72
2023-09-17T12:39:50.841Z,100772.02
2023-09-17T12:42:18.213Z,100771.45
2023-09-17T12:44:45.143Z,100768.40
2023-09-17T12:47:12.115Z,100765.25
2023-09-17T12:49:39.102Z,100763.48
2023-09-17T12:52:06.070Z,100768.06
2023-09-17T12:54:33.717Z,100763.98
2023-09-17T12:57:00.635Z,100762.95
2023-09-17T12:59:34.856Z,100764.15
2023-09-17T13:02:04.792Z,100758.78
2023-09-17T13:04:38.863Z,100763.59
2023-09-17T13:07:07.074Z,100759.28
2023-09-17T13:09:34.010Z,100758.79
2023-09-17T13:12:02.418Z,100754.27
2023-09-17T13:14:31.630Z,100753.60
2023-09-17T13:16:58.631Z,100754.42
2023-09-17T13:19:25.995Z,100753.15
2023-09-17T13:21:52.951Z,100754.40
2023-09-17T13:24:20.261Z,100753.08
2023-09-17T13:26:47.174Z,100750.95
2023-09-17T13:29:14.122Z,100750.77
2023-09-17T13:31:41.978Z,100751.33
2023-09-17T13:34:09.820Z,100748.13
2023-09-17T13:36:37.207Z,100747.77
2023-09-17T13:39:04.714Z,100744.80
2023-09-17T13:41:31.830Z,100742.46
2023-09-17T13:43:59.444Z,100743.65
2023-09-17T13:46:28.630Z,100744.73
2023-09-17T13:48:56.269Z,100740.70
2023-09-17T13:51:23.216Z,100738.25
2023-09-17T13:53:50.070Z,100741.54
2023-09-17T13:56:17.258Z,100741.55
2023-09-17T13:58:44.406Z,100741.63
2023-09-17T14:01:13.480Z,100739.88
2023-09-17T14:03:40.488Z,100736.79
2023-09-17T14:06:07.458Z,100734.20
2023-09-17T14:08:35.765Z,100732.23
2023-09-17T14:11:04.251Z,100733.88
2023-09-17T14:13:31.602Z,100728.67
2023-09-17T14:15:58.517Z,100730.54
2023-09-17T14:18:25.549Z,100729.80
2023-09-17T14:20:52.452Z,100727.76
2023-09-17T14:23:19.393Z,100733.91
2023-09-17T14:25:46.316Z,100733.92
2023-09-17T14:28:13.265Z,100732.52
2023-09-17T14:30:40.257Z,100731.43
2023-09-17T14:33:07.336Z,100730.02
2023-09-17T14:35:35.089Z,100729.42
2023-09-17T14:38:02.499Z,100728.52
2023-09-17T14:40:29.773Z,100727.80
2023-09-17T14:42:56.894Z,100729.89
2023-09-17T14:45:23.981Z,100729.02
2023-09-17T14:47:51.431Z,100728.61
2023-09-17T14:50:18.578Z,100724.92
2023-09-17T14:52:45.520Z,100724.36
2023-09-17T14:55:13.252Z,100722.73
2023-09-17T14:57:41.680Z,100717.72
2023-09-17T15:00:10.453Z,100719.08
2023-09-17T15:02:37.697Z,100718.79
2023-09-17T15:05:05.173Z,100719.02
2023-09-17T15:07:32.331Z,100717.62
2023-09-17T15:09:59.342Z,100715.50
2023-09-17T15:12:28.434Z,100713.74
2023-09-17T15:14:55.285Z,100711.22
2023-09-17T15:17:24.891Z,100711.90
2023-09-17T15:19:51.910Z,100713.13
2023-09-17T15:22:18.886Z,100711.70
2023-09-17T15:24:46.113Z,100712.14
2023-09-17T15:27:13.006Z,100709.36
2023-09-17T15:29:39.855Z,100710.87
2023-09-17T15:32:07.412Z,100712.04
2023-09-17T15:34:36.552Z,100714.17
2023-09-17T15:37:04.110Z,100710.66
2023-09-17T15:39:30.995Z,100714.59
2023-09-17T15:41:58.585Z,100714.10
2023-09-17T15:44:25.985Z,100713.65
2023-09-17T15:46:53.073Z,100713.40
2023-09-17T15:49:19.925Z,100720.21
2023-09-17T15:51:46.881Z,100717.88
2023-09-17T15:54:14.192Z,100719.02
2023-09-17T15:56:42.320Z,100721.77
2023-09-17T15:59:10.424Z,100719.08
2023-09-17T16:01:39.941Z,100724.20
2023-09-17T16:04:06.995Z,100720.80
2023-09-17T16:06:34.012Z,100721.46
2023-09-17T16:09:01.013Z,100725.07
2023-09-17T16:11:27.904Z,100719.52
2023-09-17T16:13:55.207Z,100723.66
2023-09-17T16:16:22.528Z,100728.81
2023-09-17T16:18:49.507Z,100727.42
2023-09-17T16:21:16.704Z,100723.81
2023-09-17T16:23:43.613Z,100728.66
2023-09-17T16:26:10.558Z,100730.38
2023-09-17T16:28:37.480Z,100727.60
2023-09-17T16:31:04.453Z,100729.82
2023-09-17T16:33:31.425Z,100730.34
2023-09-17T16:36:00.747Z,100728.77
2023-09-17T16:38:27.818Z,100733.47
2023-09-17T16:40:55.001Z,100736.80
2023-09-17T16:43:22.267Z,100738.18
2023-09-17T16:45:49.304Z,100739.98
2023-09-17T16:48:16.565Z,100740.49
2023-09-17T16:50:43.780Z,100741.92
2023-09-17T16:53:10.829Z,100745.42
2023-09-17T16:55:39.218Z,100744.04
2023-09-17T16:58:06.277Z,100746.63
2023-09-17T17:00:33.655Z,100747.38
2023-09-17T17:03:00.956Z,100748.64
2023-09-17T17:05:28.039Z,100747.80
2023-09-17T17:07:55.125Z,100749.66
2023-09-17T17:10:22.093Z,100749.66
2023-09-17T17:12:49.069Z,100750.11
2023-09-17T17:15:16.089Z,100749.64
2023-09-17T17:17:43.413Z,100751.02
2023-09-17T17:20:10.795Z,100753.98
2023-09-17T17:22:48.731Z,100752.64
2023-09-17T17:25:19.258Z,100751.48
2023-09-17T17:27:47.488Z,100751.26
2023-09-17T17:30:14.748Z,100749.31
2023-09-17T17:32:43.700Z,100748.42
2023-09-17T17:35:11.090Z,100755.33
2023-09-17T17:37:39.341Z,100754.70
2023-09-17T17:40:06.739Z,100755.07
2023-09-17T17:42:33.906Z,100750.81
2023-09-17T17:45:00.827Z,100755.80
2023-09-17T17:47:28.609Z,100755.42
2023-09-17T17:49:57.287Z,100756.98
2023-09-17T17:52:24.467Z,100760.61
2023-09-17T17:54:51.502Z,100759.73
2023-09-17T17:57:21.371Z,100754.81
2023-09-17T17:59:48.437Z,100755.05
2023-09-17T18:02:15.521Z,100756.69
2023-09-17T18:04:42.940Z,100753.59
2023-09-17T18:07:11.995Z,100751.39
2023-09-17T18:09:39.296Z,100750.25
2023-09-17T18:12:06.415Z,100753.32
2023-09-17T18:14:33.454Z,100755.84
2023-09-17T18:17:00.729Z,100756.09
2023-09-17T18:19:27.868Z,100763.20
2023-09-17T18:21:55.004Z,100761.64
2023-09-17T18:24:24.774Z,100761.83
2023-09-17T18:26:52.063Z,100758.96
2023-09-17T18:29:23.066Z,100758.58
2023-09-17T18:31:50.279Z,100759.83
2023-09-17T18:35:08.030Z,100754.70
2023-09-17T18:37:35.179Z,100755.66
2023-09-17T18:40:02.109Z,100751.88
2023-09-17T18:42:30.382Z,100754.49
2023-09-17T18:44:57.919Z,100749.24
2023-09-17T18:47:24.901Z,100748.98
2023-09-17T18:49:53.639Z,100747.10
2023-09-17T18:52:20.690Z,100747.22
2023-09-17T18:54:47.776Z,100742.88
2023-09-17T18:57:16.478Z,100742.09
2023-09-17T18:59:45.647Z,100747.00
2023-09-17T19:02:12.781Z,100747.76
2023-09-17T19:04:40.519Z,100747.97
2023-09-17T19:07:08.065Z,100745.34
2023-09-17T19:09:35.022Z,100747.23
2023-09-17T19:12:06.223Z,100746.95
2023-09-17T19:14:41.312Z,100746.73
2023-09-17T19:17:09.536Z,100747.59
2023-09-17T19:19:36.596Z,100747.35
2023-09-17T19:22:10.305Z,100749.35
2023-09-17T19:24:37.951Z,100746.39
2023-09-17T19:27:05.361Z,100750.41
2023-09-17T19:29:32.556Z,100751.36
2023-09-17T19:31:59.748Z,100753.55
2023-09-17T19:34:27.402Z,100751.13
2023-09-17T19:36:54.381Z,100750.64
2023-09-17T19:39:21.270Z,100745.88
2023-09-17T19:41:48.215Z,100744.33
2023-09-17T19:44:15.270Z,100746.30
2023-09-17T19:46:42.502Z,100747.00
2023-09-17T19:49:35.424Z,100744.64
2023-09-17T19:52:02.487Z,100743.30
2023-09-17T19:54:29.492Z,100741.77
2023-09-17T19:56:56.447Z,100738.11
2023-09-17T19:59:23.655Z,100737.26
2023-09-17T20:01:50.982Z,100741.56
2023-09-17T20:04:17.942Z,100734.66
2023-09-17T20:06:54.426Z,100736.20
2023-09-17T20:09:22.542Z,100738.10
2023-09-17T20:11:49.550Z,100737.63
2023-09-17T20:14:16.582Z,100737.49
2023-09-17T20:16:43.857Z,100735.92
2023-09-17T20:19:11.223Z,100736.09
2023-09-17T20:21:39.121Z,100737.27
2023-09-17T20:24:07.456Z,100738.46
2023-09-17T20:26:37.427Z,100738.73
2023-09-17T20:29:05.323Z,100736.47
2023-09-17T20:31:32.915Z,100735.31
2023-09-17T20:35:50.627Z,100736.42
2023-09-17T20:38:18.661Z,100738.07
2023-09-17T20:40:46.201Z,100737.07
2023-09-17T20:43:13.504Z,100736.94
2023-09-17T20:45:40.447Z,100737.25
2023-09-17T20:48:07.885Z,100734.21
2023-09-17T20:50:35.296Z,100733.36
2023-09-17T20:53:02.960Z,100732.90
2023-09-17T20:55:30.602Z,100732.64
2023-09-17T20:57:57.765Z,100730.71
2023-09-17T21:00:25.324Z,100729.46
2023-09-17T21:02:54.926Z,100729.33
2023-09-17T21:05:23.838Z,100727.02
2023-09-17T21:07:51.005Z,100725.98
2023-09-17T21:10:18.840Z,100722.14
2023-09-17T21:12:45.952Z,100723.61
2023-09-17T21:15:13.184Z,100725.29
2023-09-17T21:17:43.434Z,100728.90
2023-09-17T21:20:19.843Z,100727.73
2023-09-17T21:22:48.070Z,100728.54
2023-09-17T21:25:17.125Z,100728.64
2023-09-17T21:27:45.555Z,100729.91
2023-09-17T21:30:13.707Z,100723.16
2023-09-17T21:32:42.069Z,100722.61
2023-09-17T21:35:11.691Z,100721.86
2023-09-17T21:37:39.533Z,100728.92
2023-09-17T21:40:07.502Z,100731.23
2023-09-17T21:42:36.959Z,100728.48
2023-09-17T21:45:05.096Z,100733.45
2023-09-17T21:47:32.698Z,100733.45
2023-09-17T21:50:01.564Z,100737.58
2023-09-17T21:52:30.852Z,100739.31
2023-09-17T21:54:58.250Z,100741.41
2023-09-17T21:57:26.173Z,100739.69
2023-09-17T21:59:53.785Z,100739.30
2023-09-17T22:02:21.016Z,100737.16
2023-09-17T22:04:49.593Z,100739.83
2023-09-17T22:07:19.056Z,100738.44
2023-09-17T22:09:46.466Z,100741.54
2023-09-17T22:19:52.043Z,100740.58
2023-09-17T22:22:20.277Z,100742.27
2023-09-17T22:24:47.632Z,100740.64
2023-09-17T22:27:16.222Z,100742.03
2023-09-17T22:29:44.263Z,100743.53
2023-09-17T22:32:11.466Z,100748.96
2023-09-17T22:34:39.072Z,100749.42
2023-09-17T22:37:06.275Z,100745.73
2023-09-17T22:39:33.463Z,100747.86
2023-09-17T22:42:00.804Z,100746.36
2023-09-17T22:44:28.117Z,100743.73
2023-09-17T22:46:55.103Z,100741.73
2023-09-17T22:49:24.834Z,100747.92
2023-09-17T22:51:51.931Z,100748.21
2023-09-17T23:01:19.088Z,100752.69
2023-09-17T23:03:46.576Z,100752.08
2023-09-17T23:06:14.192Z,100752.15
2023-09-17T23:08:42.939Z,100749.96
2023-09-17T23:11:10.620Z,100747.05
2023-09-17T23:13:38.459Z,100749.81
2023-09-17T23:16:05.972Z,100747.56
2023-09-17T23:18:34.119Z,100744.35
2023-09-17T23:21:05.183Z,100742.30
2023-09-17T23:23:32.963Z,100742.42
2023-09-17T23:26:02.962Z,100740.71
2023-09-17T23:28:34.692Z,100741.99
2023-09-17T23:31:11.582Z,100743.31
2023-09-17T23:33:40.955Z,100744.45
2023-09-17T23:36:08.519Z,100745.27
2023-09-17T23:38:36.179Z,100740.77
2023-09-17T23:41:04.493Z,100743.19
2023-09-17T23:43:31.623Z,100740.42
2023-09-17T23:45:58.768Z,100740.23
